createdAt,value
2018-12-16T00:01:00.012Z,958.27
2018-12-16T00:03:40.496Z,1174.90
2018-12-16T00:06:46.638Z,925.50
2018-12-16T00:09:25.123Z,739.83
2018-12-16T00:12:06.181Z,875.97
2018-12-16T00:14:44.817Z,880.00
2018-12-16T00:21:04.779Z,834.03
2018-12-16T00:23:45.690Z,877.03
2018-12-16T00:30:09.088Z,982.80
2018-12-16T00:32:52.567Z,869.07
2018-12-16T00:35:58.023Z,823.67
2018-12-16T00:38:37.115Z,705.70
2018-12-16T00:41:10.225Z,887.17
2018-12-16T00:44:10.733Z,710.33
2018-12-16T00:50:37.800Z,613.53
2018-12-16T00:53:22.429Z,708.97
2018-12-16T01:00:06.535Z,612.97
2018-12-16T01:02:47.771Z,637.40
2018-12-16T01:05:25.707Z,804.93
2018-12-16T01:08:19.995Z,726.23
2018-12-16T01:11:01.912Z,748.73
2018-12-16T01:13:32.627Z,793.67
2018-12-16T01:23:40.863Z,790.83
2018-12-16T01:45:43.146Z,780.87
2018-12-16T01:49:04.107Z,837.83
2018-12-16T01:53:15.952Z,904.50
2018-12-16T02:14:30.156Z,901.27
2018-12-16T02:17:28.192Z,1011.03
2018-12-16T02:20:07.967Z,1096.80
2018-12-16T02:26:21.425Z,1040.23
2018-12-16T02:29:12.387Z,840.00
2018-12-16T02:35:55.937Z,774.73
2018-12-16T02:42:47.609Z,881.27
2018-12-16T02:46:04.840Z,758.07
2018-12-16T02:48:46.397Z,816.77
2018-12-16T02:51:24.510Z,898.93
2018-12-16T02:54:05.439Z,967.47
2018-12-16T02:56:46.272Z,902.60
2018-12-16T02:59:24.350Z,807.97
2018-12-16T03:02:03.963Z,951.63
2018-12-16T03:15:59.226Z,722.07
2018-12-16T03:18:38.228Z,591.93
2018-12-16T03:21:42.505Z,667.03
2018-12-16T03:24:24.039Z,700.93
2018-12-16T03:31:01.448Z,531.87
2018-12-16T03:33:39.778Z,607.17
2018-12-16T03:36:21.404Z,673.10
2018-12-16T03:38:59.127Z,549.00
2018-12-16T03:41:38.255Z,671.37
2018-12-16T03:44:16.680Z,607.07
2018-12-16T03:46:58.352Z,759.33
2018-12-16T03:49:29.046Z,560.63
2018-12-16T03:51:59.794Z,650.70
2018-12-16T03:54:41.097Z,774.47
2018-12-16T03:57:18.997Z,840.73
2018-12-16T03:59:49.744Z,707.47
2018-12-16T04:02:27.525Z,799.97
2018-12-16T04:08:42.845Z,858.47
2018-12-16T04:11:27.266Z,758.67
2018-12-16T04:14:05.894Z,643.27
2018-12-16T04:16:46.118Z,591.20
2018-12-16T04:19:23.919Z,713.03
2018-12-16T04:29:29.435Z,716.23
2018-12-16T05:02:40.390Z,629.70
2018-12-16T05:05:51.735Z,748.33
2018-12-16T06:01:15.774Z,1034.30
2018-12-16T06:03:55.359Z,789.03
2018-12-16T06:06:49.937Z,995.70
2018-12-16T06:09:31.957Z,1047.03
2018-12-16T06:15:25.235Z,908.20
2018-12-16T06:18:16.150Z,1067.77
2018-12-16T06:20:46.897Z,1231.23
2018-12-16T06:23:18.325Z,1032.50
2018-12-16T06:26:28.665Z,1175.20
2018-12-16T06:32:51.164Z,967.83
2018-12-16T06:36:04.847Z,1020.57
2018-12-16T06:38:48.508Z,882.57
2018-12-16T06:41:19.337Z,753.07
2018-12-16T06:43:51.055Z,778.93
2018-12-16T06:46:22.889Z,708.90
2018-12-16T06:48:55.188Z,859.83
2018-12-16T06:51:26.065Z,671.87
2018-12-16T06:54:02.390Z,886.13
2018-12-16T06:56:31.315Z,1068.67
2018-12-16T06:59:06.003Z,814.57
2018-12-16T07:01:36.825Z,992.23
2018-12-16T07:04:07.829Z,988.10
2018-12-16T07:06:53.168Z,834.17
2018-12-16T07:09:28.995Z,1058.03
2018-12-16T07:11:59.775Z,1166.97
2018-12-16T07:14:31.406Z,1244.27
2018-12-16T07:17:02.084Z,1003.03
2018-12-16T07:19:32.776Z,923.97
2018-12-16T07:22:06.314Z,1012.73
2018-12-16T07:27:29.012Z,691.23
2018-12-16T07:30:00.966Z,811.93
2018-12-16T07:32:31.830Z,1023.60
2018-12-16T07:35:03.217Z,1067.37
2018-12-16T07:37:33.935Z,907.37
2018-12-16T07:40:05.573Z,857.77
2018-12-16T07:42:36.950Z,903.57
2018-12-16T07:45:15.788Z,853.87
2018-12-16T07:47:48.210Z,753.37
2018-12-16T07:50:22.248Z,960.50
2018-12-16T07:56:15.407Z,865.47
2018-12-16T07:58:53.279Z,1019.13
2018-12-16T08:01:36.139Z,882.60
2018-12-16T08:04:07.035Z,1122.70
2018-12-16T08:06:37.868Z,846.37
2018-12-16T08:09:08.963Z,1048.47
2018-12-16T08:11:42.174Z,865.77
2018-12-16T08:14:15.889Z,1054.83
2018-12-16T08:16:50.808Z,1391.43
2018-12-16T08:19:25.896Z,1035.37
2018-12-16T08:21:59.247Z,1083.60
2018-12-16T08:24:31.830Z,1133.40
2018-12-16T08:29:45.179Z,1023.27
2018-12-16T08:32:26.951Z,1271.97
2018-12-16T08:34:59.321Z,1329.80
2018-12-16T08:37:31.090Z,1039.13
2018-12-16T08:40:02.164Z,794.17
2018-12-16T08:42:38.619Z,1015.07
2018-12-16T08:45:10.759Z,1124.17
2018-12-16T08:47:49.033Z,1209.67
2018-12-16T08:50:34.222Z,1210.53
2018-12-16T08:53:14.396Z,1174.47
2018-12-16T08:58:23.058Z,1355.90
2018-12-16T09:00:54.433Z,952.17
2018-12-16T09:03:27.972Z,1262.70
2018-12-16T09:06:03.043Z,1431.87
2018-12-16T09:08:33.874Z,1490.87
2018-12-16T09:11:10.314Z,1255.33
2018-12-16T09:13:42.203Z,1140.97
2018-12-16T09:16:12.967Z,1199.63
2018-12-16T09:18:48.380Z,1067.90
2018-12-16T09:21:21.034Z,1229.67
2018-12-16T09:24:26.059Z,1475.43
2018-12-16T09:27:04.802Z,1102.77
2018-12-16T09:29:35.640Z,1096.10
2018-12-16T09:32:18.407Z,1092.03
2018-12-16T09:34:54.646Z,1015.20
2018-12-16T09:37:25.433Z,1140.43
2018-12-16T09:39:56.894Z,1333.57
2018-12-16T09:42:27.699Z,1504.47
2018-12-16T09:45:01.245Z,1337.00
2018-12-16T09:47:34.536Z,1578.50
2018-12-16T09:50:05.551Z,1237.00
2018-12-16T09:52:36.346Z,1165.50
2018-12-16T09:55:11.405Z,1208.70
2018-12-16T09:57:43.023Z,1247.97
2018-12-16T10:00:14.734Z,953.63
2018-12-16T10:02:46.516Z,1403.07
2018-12-16T10:05:18.000Z,1068.93
2018-12-16T10:07:50.127Z,1425.13
2018-12-16T10:10:26.035Z,1339.43
2018-12-16T10:12:56.768Z,1247.93
2018-12-16T10:15:27.391Z,1029.17
2018-12-16T10:17:58.049Z,1822.20
2018-12-16T10:20:35.118Z,1469.53
2018-12-16T10:23:09.346Z,1479.27
2018-12-16T10:25:40.077Z,1383.13
2018-12-16T10:28:10.726Z,1108.37
2018-12-16T10:30:41.437Z,1396.37
2018-12-16T10:33:12.233Z,1118.00
2018-12-16T10:35:42.966Z,1012.00
2018-12-16T10:38:13.573Z,1496.07
2018-12-16T10:40:44.274Z,1464.60
2018-12-16T10:43:14.954Z,1383.67
2018-12-16T10:45:45.609Z,1284.57
2018-12-16T10:48:16.342Z,1272.97
2018-12-16T10:50:46.926Z,1252.40
2018-12-16T10:53:17.954Z,1308.40
2018-12-16T10:55:48.666Z,1219.13
2018-12-16T10:58:19.453Z,1469.93
2018-12-16T11:00:55.115Z,1355.03
2018-12-16T11:03:26.265Z,1212.53
2018-12-16T11:05:56.987Z,1155.70
2018-12-16T11:12:43.556Z,1340.47
2018-12-16T11:15:15.695Z,1228.20
2018-12-16T11:17:46.493Z,1228.70
2018-12-16T11:23:39.782Z,1513.77
2018-12-16T11:26:12.070Z,1358.63
2018-12-16T11:28:46.381Z,1323.20
2018-12-16T11:31:17.187Z,1236.60
2018-12-16T11:33:47.896Z,1158.27
2018-12-16T11:36:18.622Z,1251.57
2018-12-16T11:38:49.376Z,1334.13
2018-12-16T11:41:20.088Z,1403.73
2018-12-16T11:43:51.878Z,1197.07
2018-12-16T11:46:22.621Z,1423.03
2018-12-16T11:48:53.296Z,1234.00
2018-12-16T11:51:24.149Z,1254.23
2018-12-16T11:53:54.866Z,1285.50
2018-12-16T11:56:25.699Z,1401.00
2018-12-16T11:59:00.983Z,1384.03
2018-12-16T12:01:31.954Z,1156.37
2018-12-16T12:04:07.388Z,1158.47
2018-12-16T12:07:13.482Z,1133.80
2018-12-16T12:09:44.239Z,1044.37
2018-12-16T12:12:18.000Z,1136.67
2018-12-16T12:14:50.885Z,1360.03
2018-12-16T12:17:21.564Z,1254.40
2018-12-16T12:19:52.366Z,1383.43
2018-12-16T12:22:23.109Z,1198.57
2018-12-16T12:24:53.908Z,1166.67
2018-12-16T12:27:24.724Z,1156.37
2018-12-16T12:29:55.389Z,1134.43
2018-12-16T12:32:26.095Z,1061.07
2018-12-16T12:34:57.173Z,1038.40
2018-12-16T12:37:28.991Z,1435.13
2018-12-16T12:39:59.735Z,1434.07
2018-12-16T12:42:30.482Z,1145.00
2018-12-16T12:45:01.340Z,1072.90
2018-12-16T12:47:40.956Z,1197.07
2018-12-16T12:50:13.942Z,1512.20
2018-12-16T12:52:52.244Z,1320.00
2018-12-16T12:55:26.769Z,1405.00
2018-12-16T12:57:56.560Z,1580.17
2018-12-16T13:00:56.893Z,1166.10
2018-12-16T13:07:29.406Z,1289.80
2018-12-16T13:10:18.982Z,1275.17
2018-12-16T13:16:46.742Z,1505.23
2018-12-16T13:19:38.422Z,1224.87
2018-12-16T13:22:45.695Z,1310.63
2018-12-16T13:25:36.318Z,1238.73
2018-12-16T13:31:16.875Z,1357.57
2018-12-16T13:34:21.314Z,1418.20
2018-12-16T13:37:01.908Z,1274.10
2018-12-16T13:42:36.647Z,1274.87
2018-12-16T13:52:31.825Z,1517.97
2018-12-16T13:55:24.894Z,1522.97
2018-12-16T14:08:23.266Z,1434.83
2018-12-16T14:11:15.112Z,1536.77
2018-12-16T14:27:01.951Z,1638.37
2018-12-16T14:30:19.916Z,1705.53
2018-12-16T14:33:04.655Z,1578.10
2018-12-16T14:35:50.578Z,1425.97
2018-12-16T14:38:40.520Z,1783.77
2018-12-16T14:41:50.071Z,1669.57
2018-12-16T14:44:54.973Z,1358.73
2018-12-16T14:47:47.167Z,1563.30
2018-12-16T14:50:45.111Z,1657.63
2018-12-16T14:53:39.875Z,1523.67
2018-12-16T14:56:33.165Z,1314.23
2018-12-16T14:59:17.542Z,1648.20
2018-12-16T15:02:05.627Z,1603.47
2018-12-16T15:04:50.323Z,1396.97
2018-12-16T15:07:41.605Z,1579.80
2018-12-16T15:10:37.285Z,1556.10
2018-12-16T15:13:31.750Z,1431.17
2018-12-16T15:16:10.379Z,1460.93
2018-12-16T15:19:28.371Z,1354.13
2018-12-16T15:22:14.272Z,1437.50
2018-12-16T15:24:58.886Z,1269.23
2018-12-16T15:27:29.615Z,1424.23
2018-12-16T15:30:11.880Z,1563.80
2018-12-16T15:32:42.659Z,1462.47
2018-12-16T15:35:59.109Z,1341.37
2018-12-16T15:38:33.195Z,1510.97
2018-12-16T15:41:16.153Z,1307.33
2018-12-16T15:44:00.723Z,1179.63
2018-12-16T15:46:39.531Z,1383.00
2018-12-16T15:49:14.025Z,1519.00
2018-12-16T15:51:52.757Z,1351.20
2018-12-16T15:58:13.437Z,1587.07
2018-12-16T16:01:19.324Z,1452.27
2018-12-16T16:07:42.256Z,1287.93
2018-12-16T16:13:34.247Z,1383.73
2018-12-16T16:16:04.988Z,1415.27
2018-12-16T16:18:35.835Z,1256.13
2018-12-16T16:21:06.534Z,1166.30
2018-12-16T16:23:37.252Z,1191.17
2018-12-16T16:26:22.231Z,1256.73
2018-12-16T16:28:52.944Z,1290.60
2018-12-16T16:32:00.489Z,1166.97
2018-12-16T16:34:39.399Z,1406.23
2018-12-16T16:37:13.980Z,1189.70
2018-12-16T16:39:51.732Z,1253.03
2018-12-16T16:42:29.533Z,1279.57
2018-12-16T16:45:07.980Z,1220.63
2018-12-16T16:47:39.745Z,1473.07
2018-12-16T16:50:52.131Z,1146.00
2018-12-16T16:53:30.162Z,1222.00
2018-12-16T16:56:47.281Z,1492.57
2018-12-16T16:59:25.564Z,1474.43
2018-12-16T17:02:04.181Z,1582.83
2018-12-16T17:04:42.832Z,1534.77
2018-12-16T17:07:42.671Z,1457.03
2018-12-16T17:10:17.160Z,1516.73
2018-12-16T17:13:09.923Z,1142.87
2018-12-16T17:16:10.383Z,1168.77
2018-12-16T17:18:49.157Z,1058.07
2018-12-16T17:21:27.748Z,1195.10
2018-12-16T17:23:58.908Z,1254.03
2018-12-16T17:26:37.008Z,1385.70
2018-12-16T17:29:07.817Z,1386.10
2018-12-16T17:31:45.608Z,1550.97
2018-12-16T17:34:16.462Z,1360.67
2018-12-16T17:37:33.438Z,1445.37
2018-12-16T17:40:04.368Z,1504.17
2018-12-16T17:42:42.387Z,1390.67
2018-12-16T17:45:29.866Z,1203.53
2018-12-16T17:48:07.728Z,1251.20
2018-12-16T17:54:52.568Z,1217.17
2018-12-16T17:57:31.409Z,1318.37
2018-12-16T18:00:02.308Z,1382.33
2018-12-16T18:02:32.997Z,1459.07
2018-12-16T18:05:03.776Z,1320.10
2018-12-16T18:07:34.552Z,1415.43
2018-12-16T18:10:05.766Z,1463.73
2018-12-16T18:12:36.532Z,1424.73
2018-12-16T18:15:08.594Z,1069.73
2018-12-16T18:17:59.819Z,1202.53
2018-12-16T18:20:30.602Z,1081.33
2018-12-16T18:23:01.203Z,923.97
2018-12-16T18:25:31.929Z,1003.40
2018-12-16T18:28:02.537Z,922.40
2018-12-16T18:30:33.203Z,1087.77
2018-12-16T18:33:42.290Z,997.50
2018-12-16T18:36:27.295Z,1128.90
2018-12-16T18:38:58.107Z,1090.77
2018-12-16T18:41:28.840Z,1130.20
2018-12-16T18:43:59.706Z,1111.27
2018-12-16T18:46:30.391Z,983.53
2018-12-16T18:49:01.182Z,1127.23
2018-12-16T18:51:31.809Z,1035.27
2018-12-16T18:54:03.659Z,859.50
2018-12-16T18:56:34.444Z,979.90
2018-12-16T18:59:05.343Z,788.90
2018-12-16T19:01:36.256Z,681.03
2018-12-16T19:04:06.998Z,703.83
2018-12-16T19:06:38.436Z,726.33
2018-12-16T19:09:09.640Z,809.83
2018-12-16T19:11:42.406Z,884.80
2018-12-16T19:14:13.097Z,781.17
2018-12-16T19:16:43.811Z,823.70
2018-12-16T19:19:15.529Z,620.83
2018-12-16T19:21:46.302Z,780.37
2018-12-16T19:24:18.573Z,891.07
2018-12-16T19:26:49.343Z,960.93
2018-12-16T19:29:20.030Z,955.37
2018-12-16T19:31:50.654Z,774.53
2018-12-16T19:34:43.950Z,960.77
2018-12-16T19:37:14.722Z,862.30
2018-12-16T19:39:45.499Z,898.07
2018-12-16T19:42:16.257Z,780.67
2018-12-16T19:44:46.986Z,798.83
2018-12-16T19:47:17.720Z,986.23
2018-12-16T19:49:48.444Z,950.30
2018-12-16T19:52:20.126Z,998.37
2018-12-16T19:55:00.001Z,1156.67
2018-12-16T19:57:38.279Z,1029.07
2018-12-16T20:01:35.684Z,1177.53
2018-12-16T20:04:11.304Z,984.37
2018-12-16T20:06:58.598Z,1022.67
2018-12-16T20:09:29.307Z,976.73
2018-12-16T20:12:00.019Z,1132.13
2018-12-16T20:14:30.689Z,1164.90
2018-12-16T20:17:01.424Z,1236.93
2018-12-16T20:19:32.113Z,823.73
2018-12-16T20:22:02.825Z,919.33
2018-12-16T20:24:33.581Z,1021.40
2018-12-16T20:27:04.418Z,1103.93
2018-12-16T20:29:36.652Z,1099.70
2018-12-16T20:32:07.428Z,996.43
2018-12-16T20:34:38.133Z,711.40
2018-12-16T20:37:09.166Z,654.70
2018-12-16T20:39:39.876Z,755.37
2018-12-16T20:42:10.573Z,722.33
2018-12-16T20:44:48.561Z,857.07
2018-12-16T20:47:19.292Z,790.43
2018-12-16T20:49:54.359Z,628.97
2018-12-16T20:52:25.173Z,687.43
2018-12-16T20:54:55.903Z,756.83
2018-12-16T20:57:26.656Z,844.07
2018-12-16T20:59:57.341Z,732.23
2018-12-16T21:02:28.119Z,900.23
2018-12-16T21:04:58.897Z,784.13
2018-12-16T21:07:29.638Z,794.20
2018-12-16T21:10:01.366Z,828.97
2018-12-16T21:12:37.961Z,668.53
2018-12-16T21:15:13.522Z,527.30
2018-12-16T21:56:51.588Z,467.80
2018-12-16T21:59:22.282Z,561.80
2018-12-16T22:01:52.935Z,701.43
2018-12-16T22:04:23.614Z,428.87
2018-12-16T22:06:54.628Z,509.93
2018-12-16T22:09:25.424Z,575.27
2018-12-16T22:11:56.210Z,540.93
2018-12-16T22:14:27.019Z,671.40
2018-12-16T22:16:57.739Z,599.90
2018-12-16T22:19:28.470Z,652.60
2018-12-16T22:21:59.160Z,576.17
2018-12-16T22:24:29.817Z,611.30
2018-12-16T22:27:01.008Z,660.57
2018-12-16T22:29:31.758Z,680.83
2018-12-16T22:32:02.522Z,17.17
2018-12-16T22:34:35.255Z,5.27
2018-12-16T22:37:05.982Z,1.20
2018-12-16T22:39:36.661Z,1.70
2018-12-16T22:42:07.685Z,1.00
2018-12-16T22:44:38.318Z,0.80
2018-12-16T22:47:08.962Z,1.07
2018-12-16T22:49:43.672Z,1.00
2018-12-16T22:52:14.346Z,0.90
2018-12-16T22:54:45.095Z,1.37
2018-12-16T22:57:15.755Z,1.00
2018-12-16T22:59:46.418Z,1.20
2018-12-16T23:02:17.111Z,1.03
2018-12-16T23:04:47.836Z,1.47
2018-12-16T23:07:21.375Z,2.17
2018-12-16T23:09:52.320Z,1.63
2018-12-16T23:12:23.070Z,1.10
2018-12-16T23:14:55.691Z,2.20
2018-12-16T23:17:26.360Z,1.90
2018-12-16T23:20:01.751Z,1.80
2018-12-16T23:22:32.365Z,2.17
2018-12-16T23:25:03.074Z,2.07
2018-12-16T23:27:34.688Z,2.97
2018-12-16T23:30:06.041Z,2.43
2018-12-16T23:32:36.748Z,2.27
2018-12-16T23:35:07.527Z,2.70
2018-12-16T23:37:38.136Z,2.73
2018-12-16T23:40:10.073Z,2.23
2018-12-16T23:42:40.673Z,2.57
2018-12-16T23:45:11.656Z,2.60
2018-12-16T23:47:42.382Z,2.57
